Hlavní strana
METAR-TAF:

METAR-TAF

Letiště :

Čeboksary, Rusko

zeměpisná šířka: 56-05-24N, zeměpisná délka: 047-20-50E, výška: 171 m

Aktuální stav počasí

Zpráva byla vytvořena před 29 minutami, v 23:00 UTC
Západojihozápadní vítr 16 kt
Teplota 9°C
Vlhkost vzduchu 93%
Tlak 997 hPa
Viditelnost: 9000 m
Oblačno až skoro zataženo ve výšce 1100 ft

METAR: UWKS 212300Z 24008MPS 9000 BKN011 09/08 Q0997 R24/290155 NOSIG RMK QFE734

Čas: 02:29 (23:29 UTC)

Předpověď počasí

Zpráva byla vytvořena před 3 hodinami a 30 minutami, v 19:59 UTC
Předpověď platná od 21 v 21 UTC do 22 v 06 UTC
Jihozápadní vítr 14 kt s nárazy do 25 kt
Viditelnost: 8000 m
Oblačno až skoro zataženo ve výšce 1000 ft
slabý déšť

TAF: UWKS 211959Z 2121/2206 22007G13MPS 8000 -RA BKN010 TX11/2206Z TN09/2121Z

Stav a předpovědi počasí z více než 4 000 letišť (zprávy METAR a TAF).

Červené a žluté tečky na mapě představují dostupné meteorologické stanice.

Když kurzor umístíte na tečku, zobrazí se název stanice.

Pak kliknutím zobrazíte stav a předpověď počasí.

Chcete-li změnit mapu, kliknutím na zelené tlačítko se znaménkem +mapu přiblížíte, kliknutím na zelené tlačítko se znaménkem – mapu oddálíte a kliknutím na zelené šipky přejdete na sousední mapy.


METAR-TAF: